createdAt,value
2019-04-07T12:27:13.825Z,945.00
2019-04-07T12:28:17.596Z,967.50
2019-04-07T12:30:45.235Z,945.00
2019-04-07T12:31:24.907Z,950.62
2019-04-07T12:32:26.104Z,950.62
2019-04-07T12:33:24.066Z,956.25
2019-04-07T12:34:26.485Z,956.25
2019-04-07T12:36:34.431Z,933.75
2019-04-07T12:37:38.026Z,933.75
2019-04-07T12:38:35.034Z,950.62
2019-04-07T12:39:34.997Z,950.62
2019-04-07T12:40:34.292Z,967.50
2019-04-07T12:41:34.707Z,978.75
2019-04-07T12:42:35.723Z,978.75
2019-04-07T12:43:34.050Z,990.00
2019-04-07T12:44:34.273Z,990.00
2019-04-07T12:45:35.805Z,984.38
2019-04-07T12:46:34.551Z,990.00
2019-04-07T12:48:36.056Z,1001.25
2019-04-07T12:49:35.198Z,1018.12
2019-04-07T12:50:33.888Z,1023.75
2019-04-07T12:51:33.962Z,1035.00
2019-04-07T12:52:33.834Z,1046.25
2019-04-07T12:53:36.225Z,1057.50
2019-04-07T12:54:34.213Z,1091.25
2019-04-07T12:55:33.994Z,1136.25
2019-04-07T12:56:34.297Z,1175.62
2019-04-07T12:57:37.694Z,1254.38
2019-04-07T12:58:35.559Z,1732.50
2019-04-07T12:59:34.676Z,2548.12
2019-04-07T13:00:44.682Z,3015.00
2019-04-07T13:01:34.753Z,2975.62
2019-04-07T13:02:33.829Z,3031.88
2019-04-07T13:03:34.452Z,3144.38
2019-04-07T13:04:34.283Z,3166.88
2019-04-07T13:05:35.484Z,2975.62
2019-04-07T13:06:33.706Z,2818.12
2019-04-07T13:07:33.689Z,2846.25
2019-04-07T13:08:33.788Z,2998.12
2019-04-07T13:09:34.507Z,3099.38
2019-04-07T13:10:34.356Z,2970.00
2019-04-07T13:11:37.477Z,2941.88
2019-04-07T13:12:35.380Z,3060.00
2019-04-07T13:13:34.179Z,3071.25
2019-04-07T13:14:38.581Z,3082.50
2019-04-07T13:15:34.636Z,3121.88
2019-04-07T13:16:33.871Z,3099.38
2019-04-07T13:17:36.752Z,3043.12
2019-04-07T13:18:35.621Z,2992.50
2019-04-07T13:19:33.570Z,2992.50
2019-04-07T13:20:33.620Z,2941.88
2019-04-07T13:21:34.115Z,2958.75
2019-04-07T13:22:34.471Z,3009.38
2019-04-07T13:23:36.068Z,3015.00
2019-04-07T13:24:36.666Z,2812.50
2019-04-07T13:25:34.531Z,2891.25
2019-04-07T13:26:33.589Z,3105.00
2019-04-07T13:27:37.196Z,3099.38
2019-04-07T13:28:34.514Z,2998.12
2019-04-07T13:29:33.520Z,3043.12
2019-04-07T13:30:33.493Z,2998.12
2019-04-07T13:31:33.459Z,2812.50
2019-04-07T13:32:41.540Z,2818.12
2019-04-07T13:33:34.900Z,2992.50
2019-04-07T13:34:33.434Z,3015.00
2019-04-07T13:35:33.442Z,2885.62
2019-04-07T13:36:33.412Z,2925.00
2019-04-07T13:37:33.398Z,2947.50
2019-04-07T13:38:33.913Z,2846.25
2019-04-07T13:39:37.041Z,2790.00
2019-04-07T13:40:34.528Z,2846.25
2019-04-07T13:41:42.956Z,2885.62
2019-04-07T13:42:34.434Z,2784.38
2019-04-07T13:43:35.767Z,2598.75
2019-04-07T13:44:33.498Z,2424.38
2019-04-07T13:45:33.336Z,2604.38
2019-04-07T13:46:36.038Z,2784.38
2019-04-07T13:47:34.044Z,2835.00
2019-04-07T13:48:33.407Z,2851.88
2019-04-07T13:49:34.149Z,2818.12
2019-04-07T13:50:34.440Z,2857.50
2019-04-07T13:51:33.292Z,2778.75
2019-04-07T13:52:33.384Z,2784.38
2019-04-07T13:53:33.244Z,2851.88
2019-04-07T13:54:34.128Z,2818.12
2019-04-07T13:55:36.427Z,2806.88
2019-04-07T13:56:34.355Z,2835.00
2019-04-07T13:57:33.855Z,2801.25
2019-04-07T13:58:35.705Z,2728.12
2019-04-07T13:59:33.804Z,2745.00
2019-04-07T14:00:33.903Z,2711.25
2019-04-07T14:01:34.661Z,2570.62
2019-04-07T14:02:33.769Z,2610.00
2019-04-07T14:03:33.767Z,2621.25
2019-04-07T14:04:34.600Z,2598.75
2019-04-07T14:05:33.208Z,2643.75
2019-04-07T14:06:33.926Z,2666.25
2019-04-07T14:07:35.339Z,2610.00
2019-04-07T14:08:33.106Z,2621.25
2019-04-07T14:09:33.090Z,2565.00
2019-04-07T14:10:35.724Z,2463.75
2019-04-07T14:11:33.854Z,2480.62
2019-04-07T14:12:33.726Z,2520.00
2019-04-07T14:13:33.783Z,2542.50
2019-04-07T14:14:33.046Z,2520.00
2019-04-07T14:15:33.046Z,2514.38
2019-04-07T14:16:34.530Z,2531.25
2019-04-07T14:17:33.018Z,2503.12
2019-04-07T14:18:33.010Z,2520.00
2019-04-07T14:19:33.248Z,2491.88
2019-04-07T14:20:32.980Z,2514.38
2019-04-07T14:21:33.861Z,2508.75
2019-04-07T14:22:33.194Z,2531.25
2019-04-07T14:23:33.176Z,2486.25
2019-04-07T14:24:33.123Z,2435.62
2019-04-07T14:25:33.497Z,2413.12
2019-04-07T14:26:33.519Z,2362.50
2019-04-07T14:27:32.917Z,2283.75
2019-04-07T14:28:33.443Z,2334.38
2019-04-07T14:29:33.933Z,2379.38
2019-04-07T14:30:33.466Z,2334.38
2019-04-07T14:31:33.605Z,2345.62
2019-04-07T14:32:33.734Z,2283.75
2019-04-07T14:33:33.004Z,2182.50
2019-04-07T14:34:35.829Z,2261.25
2019-04-07T14:35:32.847Z,2261.25
2019-04-07T14:36:32.872Z,2227.50
2019-04-07T14:37:32.988Z,2255.62
2019-04-07T14:38:32.859Z,2261.25
2019-04-07T14:39:32.808Z,2148.75
2019-04-07T14:40:33.455Z,2070.00
2019-04-07T14:41:33.292Z,2053.12
2019-04-07T14:42:34.110Z,2036.25
2019-04-07T14:43:33.224Z,2120.62
2019-04-07T14:44:33.493Z,2002.50
2019-04-07T14:45:32.752Z,1980.00
2019-04-07T14:46:32.767Z,2041.88
2019-04-07T14:47:33.531Z,2036.25
2019-04-07T14:48:32.721Z,1980.00
2019-04-07T14:49:33.331Z,1985.62
2019-04-07T14:50:33.155Z,1957.50
2019-04-07T14:51:32.898Z,1873.12
2019-04-07T14:52:32.917Z,1884.38
2019-04-07T14:53:32.990Z,1822.50
2019-04-07T14:54:33.414Z,1676.25
2019-04-07T14:55:32.901Z,1524.38
2019-04-07T14:56:35.703Z,1372.50
2019-04-07T14:57:32.931Z,1288.12
2019-04-07T14:58:32.798Z,1254.38
2019-04-07T14:59:33.035Z,1231.88
2019-04-07T15:00:32.629Z,1226.25
2019-04-07T15:01:32.610Z,1203.75
2019-04-07T15:02:33.456Z,1080.00
2019-04-07T15:03:33.206Z,916.88
2019-04-07T15:04:32.671Z,753.75
2019-04-07T15:05:32.835Z,641.25
2019-04-07T15:06:34.660Z,545.62
2019-04-07T15:07:32.545Z,489.38
2019-04-07T15:08:32.948Z,450.00
2019-04-07T15:09:32.517Z,421.88
2019-04-07T15:10:32.930Z,399.38
2019-04-07T15:11:32.514Z,399.38
2019-04-07T15:12:32.497Z,376.88
2019-04-07T15:13:32.510Z,371.25
2019-04-07T15:14:33.866Z,360.00
2019-04-07T15:15:32.536Z,354.38
2019-04-07T15:16:32.868Z,343.12
2019-04-07T15:17:32.958Z,337.50
2019-04-07T15:18:32.480Z,331.88
2019-04-07T15:19:33.232Z,331.88
2019-04-07T15:20:32.422Z,326.25
2019-04-07T15:21:33.028Z,320.62
2019-04-07T15:22:32.391Z,315.00
2019-04-07T15:23:33.454Z,309.38
2019-04-07T15:24:35.314Z,303.75
2019-04-07T15:25:32.587Z,298.12
2019-04-07T15:26:32.575Z,298.12
2019-04-07T15:27:33.775Z,292.50
2019-04-07T15:28:41.559Z,286.88
2019-04-07T15:29:32.417Z,281.25
2019-04-07T15:30:33.038Z,281.25
2019-04-07T15:31:33.081Z,275.62
2019-04-07T15:32:35.639Z,275.62
2019-04-07T15:33:34.071Z,270.00
2019-04-07T15:34:33.168Z,270.00
2019-04-07T15:35:34.061Z,270.00
2019-04-07T15:36:33.129Z,270.00
2019-04-07T15:37:33.439Z,270.00
2019-04-07T15:38:41.736Z,270.00
2019-04-07T15:39:34.241Z,270.00
2019-04-07T15:40:35.837Z,270.00
2019-04-07T15:41:32.711Z,264.38
2019-04-07T15:42:40.158Z,264.38
2019-04-07T15:43:34.944Z,264.38
2019-04-07T15:44:32.571Z,258.75
2019-04-07T15:45:32.149Z,258.75
2019-04-07T15:46:32.135Z,253.12
2019-04-07T15:47:32.138Z,253.12
2019-04-07T15:48:33.989Z,247.50
2019-04-07T15:49:32.181Z,247.50
2019-04-07T15:50:32.114Z,241.88
2019-04-07T15:51:35.105Z,241.88
2019-04-07T15:52:32.074Z,236.25
2019-04-07T15:53:32.913Z,236.25
2019-04-07T15:54:32.068Z,247.50
2019-04-07T15:55:45.985Z,241.88
2019-04-07T15:56:33.678Z,241.88
2019-04-07T15:57:32.455Z,241.88
2019-04-07T15:58:32.102Z,236.25
2019-04-07T15:59:32.044Z,236.25
2019-04-07T16:00:34.739Z,236.25
2019-04-07T16:01:32.542Z,236.25
2019-04-07T16:02:31.954Z,230.62
2019-04-07T16:03:32.076Z,230.62
2019-04-07T16:04:33.007Z,230.62
2019-04-07T16:05:38.369Z,230.62
2019-04-07T16:06:35.523Z,230.62
2019-04-07T16:07:32.743Z,225.00
2019-04-07T16:08:32.027Z,225.00
2019-04-07T16:09:40.354Z,225.00
2019-04-07T16:10:33.680Z,225.00
2019-04-07T16:11:32.675Z,219.38
2019-04-07T16:12:42.484Z,219.38
2019-04-07T16:13:33.764Z,219.38
2019-04-07T16:14:32.045Z,213.75
2019-04-07T16:15:31.917Z,213.75
2019-04-07T16:16:31.883Z,208.12
2019-04-07T16:17:33.901Z,208.12
2019-04-07T16:18:31.991Z,202.50
2019-04-07T16:19:39.697Z,202.50
2019-04-07T16:20:37.971Z,202.50
2019-04-07T16:21:33.176Z,196.88
2019-04-07T16:22:31.774Z,196.88
2019-04-07T16:23:32.563Z,196.88
2019-04-07T16:24:32.637Z,196.88
2019-04-07T16:25:32.234Z,191.25
2019-04-07T16:26:33.615Z,191.25
2019-04-07T16:27:34.924Z,191.25
2019-04-07T16:28:31.914Z,185.62
2019-04-07T16:29:31.724Z,185.62
2019-04-07T16:30:31.722Z,185.62
2019-04-07T16:31:32.226Z,180.00
2019-04-07T16:32:31.709Z,180.00
2019-04-07T16:33:34.001Z,174.38
2019-04-07T16:34:31.630Z,174.38
2019-04-07T16:35:32.383Z,168.75
2019-04-07T16:36:32.471Z,168.75
2019-04-07T16:37:32.000Z,163.12
2019-04-07T16:38:31.948Z,163.12
2019-04-07T16:39:34.465Z,157.50
2019-04-07T16:40:31.704Z,157.50
2019-04-07T16:41:31.617Z,157.50
2019-04-07T16:43:34.892Z,151.88
2019-04-07T16:44:52.672Z,146.25
2019-04-07T16:45:31.646Z,146.25
2019-04-07T16:46:31.610Z,140.62
2019-04-07T16:47:34.553Z,140.62
2019-04-07T16:48:31.587Z,140.62
2019-04-07T16:49:31.567Z,135.00
2019-04-07T16:50:31.608Z,135.00
2019-04-07T16:51:33.626Z,135.00
2019-04-07T16:52:33.154Z,129.38
2019-04-07T16:53:32.437Z,129.38
2019-04-07T16:54:31.452Z,129.38
2019-04-07T16:55:31.509Z,123.75
2019-04-07T16:56:32.246Z,123.75
2019-04-07T16:57:33.482Z,118.12
2019-04-07T16:58:35.398Z,118.12
2019-04-07T16:59:32.753Z,118.12
2019-04-07T17:00:31.335Z,112.50
2019-04-07T17:01:31.501Z,112.50
2019-04-07T17:02:31.687Z,106.88
2019-04-07T17:03:31.436Z,106.88
2019-04-07T17:04:32.194Z,101.25
2019-04-07T17:05:32.216Z,101.25
2019-04-07T17:06:35.070Z,95.62
2019-04-07T17:07:31.770Z,95.62
2019-04-07T17:08:31.830Z,95.62
2019-04-07T17:09:33.447Z,90.00
2019-04-07T17:10:34.088Z,90.00
2019-04-07T17:11:32.248Z,84.38
2019-04-07T17:12:31.330Z,84.38
2019-04-07T17:13:38.574Z,78.75
2019-04-07T17:14:35.781Z,78.75
2019-04-07T17:15:31.687Z,78.75
2019-04-07T17:16:31.215Z,73.12
2019-04-07T17:17:31.434Z,73.12
2019-04-07T17:18:31.138Z,67.50
2019-04-07T17:19:32.053Z,67.50
2019-04-07T17:20:36.631Z,61.88
2019-04-07T17:21:31.927Z,61.88
2019-04-07T17:22:31.519Z,56.25
2019-04-07T17:23:31.148Z,56.25
2019-04-07T17:24:31.084Z,50.62
2019-04-07T17:25:32.913Z,50.62
2019-04-07T17:26:31.171Z,45.00
2019-04-07T17:27:31.461Z,45.00
2019-04-07T17:28:31.084Z,39.38
2019-04-07T17:29:32.135Z,39.38
2019-04-07T17:30:31.462Z,33.75
2019-04-07T17:31:32.632Z,33.75
2019-04-07T17:32:34.739Z,33.75
2019-04-07T17:33:35.061Z,28.12
2019-04-07T17:34:32.536Z,28.12
2019-04-07T17:35:30.970Z,28.12
2019-04-07T17:36:31.078Z,28.12
2019-04-07T17:37:30.990Z,22.50
2019-04-07T17:38:33.109Z,22.50
2019-04-07T17:39:31.524Z,22.50
2019-04-07T17:40:31.923Z,22.50
2019-04-07T17:41:31.854Z,16.88
2019-04-07T17:42:30.888Z,16.88
2019-04-07T17:43:40.580Z,16.88
2019-04-07T17:44:32.060Z,16.88
2019-04-07T17:45:30.897Z,11.25
2019-04-07T17:46:30.909Z,11.25
2019-04-07T17:47:31.524Z,11.25
2019-04-07T17:48:38.522Z,11.25
2019-04-07T17:49:33.513Z,11.25
2019-04-07T17:50:31.683Z,5.62
2019-04-07T17:51:30.822Z,5.62
2019-04-07T17:52:31.623Z,5.62
2019-04-07T17:53:31.656Z,5.62
2019-04-07T17:54:30.783Z,5.62
2019-04-07T17:55:30.750Z,5.62
2019-04-07T17:56:31.179Z,5.62
2019-04-07T17:57:34.863Z,5.62
2019-04-07T17:58:32.064Z,5.62
2019-04-07T17:59:30.731Z,0.00
2019-04-07T18:00:30.690Z,0.00
2019-04-07T18:01:31.306Z,0.00
2019-04-07T18:03:31.908Z,0.00
2019-04-07T18:04:53.611Z,0.00
2019-04-07T18:06:40.671Z,0.00
2019-04-07T18:10:00.863Z,0.00
2019-04-07T18:11:21.824Z,0.00
2019-04-07T18:12:04.610Z,0.00
2019-04-07T18:13:04.127Z,0.00
2019-04-07T18:14:22.373Z,0.00
2019-04-07T18:15:05.777Z,0.00
2019-04-07T18:16:01.857Z,0.00
2019-04-07T18:17:00.829Z,0.00
2019-04-07T18:18:01.609Z,0.00
2019-04-07T18:19:01.587Z,0.00
2019-04-07T18:20:05.291Z,0.00
2019-04-07T18:21:01.866Z,0.00
2019-04-07T18:22:02.795Z,0.00
2019-04-07T18:23:01.289Z,0.00
2019-04-07T18:24:01.277Z,0.00
2019-04-07T18:25:03.384Z,0.00
2019-04-07T18:26:04.974Z,0.00
2019-04-07T18:27:01.711Z,0.00
2019-04-07T18:28:01.092Z,0.00
2019-04-07T18:29:01.751Z,0.00
2019-04-07T18:30:01.138Z,0.00
2019-04-07T18:31:04.367Z,0.00
2019-04-07T18:32:00.707Z,0.00
2019-04-07T18:33:00.842Z,0.00
2019-04-07T18:34:02.750Z,0.00
2019-04-07T18:35:01.207Z,0.00
2019-04-07T18:36:03.315Z,0.00
2019-04-07T18:37:00.558Z,0.00
2019-04-07T18:38:00.718Z,0.00
2019-04-07T18:39:00.546Z,0.00
2019-04-07T18:40:02.041Z,0.00
2019-04-07T18:41:01.670Z,0.00
2019-04-07T18:42:02.143Z,0.00
2019-04-07T18:43:01.074Z,0.00
2019-04-07T18:44:05.619Z,0.00
2019-04-07T18:45:01.783Z,0.00
2019-04-07T18:46:01.121Z,0.00
2019-04-07T18:47:01.392Z,0.00
2019-04-07T18:48:00.439Z,0.00
2019-04-07T18:49:02.435Z,0.00
2019-04-07T18:50:04.768Z,0.00
2019-04-07T18:51:02.985Z,0.00
2019-04-07T18:52:00.409Z,0.00
2019-04-07T18:53:00.424Z,0.00
2019-04-07T18:54:03.093Z,0.00
2019-04-07T18:55:04.320Z,0.00
2019-04-07T18:56:01.458Z,0.00
2019-04-07T18:57:01.303Z,0.00
2019-04-07T18:58:03.003Z,0.00
2019-04-07T18:59:00.319Z,0.00
2019-04-07T19:00:03.879Z,0.00
2019-04-07T19:01:04.298Z,0.00
2019-04-07T19:02:03.175Z,0.00
2019-04-07T19:03:00.351Z,0.00
2019-04-07T19:04:00.394Z,0.00
2019-04-07T19:05:01.887Z,0.00
2019-04-07T19:06:04.845Z,0.00
2019-04-07T19:07:02.137Z,0.00
2019-04-07T19:08:00.649Z,0.00
2019-04-07T19:09:01.452Z,0.00
2019-04-07T19:10:09.792Z,0.00
2019-04-07T19:11:10.681Z,0.00
2019-04-07T19:12:06.266Z,0.00
2019-04-07T19:13:07.814Z,0.00
2019-04-07T19:14:21.162Z,0.00
2019-04-07T19:15:06.652Z,0.00
2019-04-07T19:16:01.872Z,0.00
2019-04-07T19:17:00.833Z,0.00
2019-04-07T19:18:02.129Z,0.00
2019-04-07T19:19:00.709Z,0.00
2019-04-07T19:20:00.713Z,0.00
2019-04-07T19:21:01.002Z,0.00
2019-04-07T19:22:00.465Z,0.00
2019-04-07T19:23:00.173Z,0.00
2019-04-07T19:24:00.883Z,0.00
2019-04-07T19:25:02.701Z,0.00
2019-04-07T19:26:01.054Z,0.00
2019-04-07T19:27:11.862Z,0.00
2019-04-07T19:28:03.741Z,0.00
2019-04-07T19:29:00.013Z,0.00
2019-04-07T19:30:00.024Z,0.00
2019-04-07T19:30:59.971Z,0.00
2019-04-07T19:31:59.969Z,0.00
2019-04-07T19:33:00.469Z,0.00
2019-04-07T19:34:01.159Z,0.00
2019-04-07T19:35:02.579Z,0.00
2019-04-07T19:35:59.932Z,0.00
2019-04-07T19:36:59.907Z,0.00
2019-04-07T19:38:00.196Z,0.00
2019-04-07T19:39:00.700Z,0.00
2019-04-07T19:40:01.563Z,0.00
2019-04-07T19:41:00.377Z,0.00
2019-04-07T19:42:04.668Z,0.00
2019-04-07T19:43:01.717Z,0.00
2019-04-07T19:43:59.838Z,0.00
2019-04-07T19:44:59.841Z,0.00
2019-04-07T19:46:00.609Z,0.00
2019-04-07T19:47:01.538Z,0.00
2019-04-07T19:48:04.000Z,0.00
2019-04-07T19:49:00.792Z,0.00
2019-04-07T19:50:00.643Z,0.00
2019-04-07T19:51:00.380Z,0.00
2019-04-07T19:52:03.277Z,0.00
2019-04-07T19:53:03.518Z,0.00
2019-04-07T19:54:00.718Z,0.00
2019-04-07T19:54:59.809Z,0.00
2019-04-07T19:56:00.748Z,0.00
2019-04-07T19:57:00.506Z,0.00
2019-04-07T19:58:00.931Z,0.00
2019-04-07T19:58:59.874Z,0.00
2019-04-07T20:00:00.533Z,0.00
2019-04-07T20:01:01.634Z,0.00
2019-04-07T20:02:01.051Z,0.00
2019-04-07T20:03:03.580Z,0.00
2019-04-07T20:04:00.635Z,0.00
2019-04-07T20:04:59.641Z,0.00
2019-04-07T20:06:00.601Z,0.00
2019-04-07T20:07:00.935Z,0.00
2019-04-07T20:08:02.567Z,0.00
2019-04-07T20:09:00.119Z,0.00
2019-04-07T20:09:59.622Z,0.00
2019-04-07T20:10:59.588Z,0.00
2019-04-07T20:12:02.223Z,0.00
2019-04-07T20:13:00.439Z,0.00
2019-04-07T20:13:59.533Z,0.00
2019-04-07T20:15:06.562Z,0.00
2019-04-07T20:16:00.565Z,0.00
2019-04-07T20:16:59.857Z,0.00
2019-04-07T20:17:59.482Z,0.00
2019-04-07T20:19:00.724Z,0.00
2019-04-07T20:19:59.918Z,0.00
2019-04-07T20:20:59.486Z,0.00
2019-04-07T20:22:00.385Z,0.00
2019-04-07T20:23:00.082Z,0.00
2019-04-07T20:24:04.375Z,0.00
2019-04-07T20:25:00.839Z,0.00
2019-04-07T20:25:59.729Z,0.00
2019-04-07T20:26:59.390Z,0.00
2019-04-07T20:27:59.557Z,0.00
2019-04-07T20:29:03.162Z,0.00
2019-04-07T20:30:00.546Z,0.00
2019-04-07T20:30:59.695Z,0.00
2019-04-07T20:31:59.323Z,0.00
2019-04-07T20:33:00.647Z,0.00
2019-04-07T20:34:02.185Z,0.00
2019-04-07T20:34:59.304Z,0.00
2019-04-07T20:35:59.327Z,0.00
2019-04-07T20:36:59.805Z,0.00
2019-04-07T20:38:02.089Z,0.00
2019-04-07T20:39:00.133Z,0.00
2019-04-07T20:40:00.251Z,0.00
2019-04-07T20:40:59.717Z,0.00
2019-04-07T20:41:59.237Z,0.00
2019-04-07T20:42:59.215Z,0.00
2019-04-07T20:43:59.203Z,0.00
2019-04-07T20:45:05.292Z,0.00
2019-04-07T20:46:00.349Z,0.00
2019-04-07T20:47:00.534Z,0.00
2019-04-07T20:48:00.126Z,0.00
2019-04-07T20:49:08.941Z,0.00
2019-04-07T20:50:00.001Z,0.00
2019-04-07T20:50:59.119Z,0.00
2019-04-07T20:51:59.135Z,0.00
2019-04-07T20:53:09.990Z,0.00
2019-04-07T20:54:03.449Z,0.00
2019-04-07T20:54:59.065Z,0.00
2019-04-07T20:55:59.061Z,0.00
2019-04-07T20:56:59.735Z,0.00
2019-04-07T20:58:14.423Z,0.00
2019-04-07T20:59:04.771Z,0.00
2019-04-07T21:00:03.578Z,0.00
2019-04-07T21:01:04.148Z,0.00
2019-04-07T21:02:05.522Z,0.00
2019-04-07T21:03:14.251Z,0.00
2019-04-07T21:04:00.058Z,0.00
2019-04-07T21:04:58.995Z,0.00
2019-04-07T21:05:58.946Z,0.00
2019-04-07T21:07:00.524Z,0.00
2019-04-07T21:08:00.726Z,0.00
2019-04-07T21:09:01.415Z,0.00
2019-04-07T21:09:59.872Z,0.00
2019-04-07T21:10:58.906Z,0.00
2019-04-07T21:11:58.911Z,0.00
2019-04-07T21:12:58.891Z,0.00
2019-04-07T21:13:59.479Z,0.00
2019-04-07T21:15:04.461Z,0.00
2019-04-07T21:15:59.864Z,0.00
2019-04-07T21:17:00.296Z,0.00
2019-04-07T21:17:59.296Z,0.00
2019-04-07T21:19:02.612Z,0.00
2019-04-07T21:19:59.892Z,0.00
2019-04-07T21:20:58.931Z,0.00
2019-04-07T21:21:58.800Z,0.00
2019-04-07T21:22:59.540Z,0.00
2019-04-07T21:23:59.444Z,0.00
2019-04-07T21:24:58.756Z,0.00
2019-04-07T21:25:59.472Z,0.00
2019-04-07T21:27:00.961Z,0.00
2019-04-07T21:27:58.716Z,0.00
2019-04-07T21:28:58.894Z,0.00
2019-04-07T21:29:59.105Z,0.00
2019-04-07T21:30:58.696Z,0.00
2019-04-07T21:31:59.304Z,0.00
2019-04-07T21:32:58.654Z,0.00
2019-04-07T21:33:59.198Z,0.00
2019-04-07T21:35:01.400Z,0.00
2019-04-07T21:35:58.935Z,0.00
2019-04-07T21:36:59.321Z,0.00
2019-04-07T21:37:58.606Z,0.00
2019-04-07T21:38:58.589Z,0.00
2019-04-07T21:40:02.816Z,0.00
2019-04-07T21:40:59.855Z,0.00
2019-04-07T21:41:58.575Z,0.00
2019-04-07T21:42:59.368Z,0.00
2019-04-07T21:43:59.545Z,0.00
2019-04-07T21:45:03.932Z,0.00
2019-04-07T21:46:00.371Z,0.00
2019-04-07T21:46:58.509Z,0.00
2019-04-07T21:48:00.184Z,0.00
2019-04-07T21:49:00.662Z,0.00
2019-04-07T21:49:58.477Z,0.00
2019-04-07T21:50:58.474Z,0.00
2019-04-07T21:51:59.319Z,0.00
2019-04-07T21:52:59.193Z,0.00
2019-04-07T21:54:02.265Z,0.00
2019-04-07T21:54:58.418Z,0.00
2019-04-07T21:55:58.410Z,0.00
2019-04-07T21:56:58.406Z,0.00
2019-04-07T21:57:58.798Z,0.00
2019-04-07T21:58:59.227Z,0.00
2019-04-07T21:59:59.098Z,0.00
2019-04-07T22:00:58.497Z,0.00
2019-04-07T22:01:59.202Z,0.00
2019-04-07T22:02:58.355Z,0.00
2019-04-07T22:03:58.765Z,0.00
2019-04-07T22:04:58.651Z,0.00
2019-04-07T22:05:58.305Z,0.00
2019-04-07T22:06:59.558Z,0.00
2019-04-07T22:07:58.326Z,0.00
2019-04-07T22:08:59.103Z,0.00
2019-04-07T22:09:58.892Z,0.00
2019-04-07T22:10:58.256Z,0.00
2019-04-07T22:11:58.239Z,0.00
2019-04-07T22:13:01.815Z,0.00
2019-04-07T22:13:59.228Z,0.00
2019-04-07T22:14:59.042Z,0.00
2019-04-07T22:16:01.590Z,0.00
2019-04-07T22:17:00.425Z,0.00
2019-04-07T22:17:58.373Z,0.00
2019-04-07T22:18:58.805Z,0.00
2019-04-07T22:19:58.516Z,0.00
2019-04-07T22:20:59.123Z,0.00
2019-04-07T22:21:58.375Z,0.00
2019-04-07T22:23:01.387Z,0.00
2019-04-07T22:23:58.297Z,0.00
2019-04-07T22:25:09.416Z,0.00
2019-04-07T22:25:58.094Z,0.00
2019-04-07T22:26:58.088Z,0.00
2019-04-07T22:27:59.016Z,0.00
2019-04-07T22:29:01.474Z,0.00
2019-04-07T22:29:59.988Z,0.00
2019-04-07T22:30:58.033Z,0.00
2019-04-07T22:31:58.032Z,0.00
2019-04-07T22:32:58.036Z,0.00
2019-04-07T22:34:00.917Z,0.00
2019-04-07T22:34:58.028Z,0.00
2019-04-07T22:35:57.999Z,0.00
2019-04-07T22:36:57.972Z,0.00
2019-04-07T22:37:58.852Z,0.00
2019-04-07T22:39:00.809Z,0.00
2019-04-07T22:40:01.782Z,0.00
2019-04-07T22:40:58.440Z,0.00
2019-04-07T22:41:58.316Z,0.00
2019-04-07T22:42:58.416Z,0.00
2019-04-07T22:43:57.898Z,0.00
2019-04-07T22:44:57.893Z,0.00
2019-04-07T22:46:06.896Z,0.00
2019-04-07T22:46:58.861Z,0.00
2019-04-07T22:47:57.853Z,0.00
2019-04-07T22:48:58.720Z,0.00
2019-04-07T22:50:01.196Z,0.00
2019-04-07T22:50:58.974Z,0.00
2019-04-07T22:51:57.815Z,0.00
2019-04-07T22:52:57.800Z,0.00
2019-04-07T22:53:58.850Z,0.00
2019-04-07T22:54:58.959Z,0.00
2019-04-07T22:55:57.794Z,0.00
2019-04-07T22:56:57.773Z,0.00
2019-04-07T22:57:57.932Z,0.00
2019-04-07T22:58:57.759Z,0.00
2019-04-07T22:59:58.679Z,0.00
2019-04-07T23:00:58.573Z,0.00
2019-04-07T23:01:57.759Z,0.00
2019-04-07T23:02:57.696Z,0.00
2019-04-07T23:03:58.097Z,0.00
2019-04-07T23:04:57.668Z,0.00
2019-04-07T23:05:57.664Z,0.00
2019-04-07T23:06:58.506Z,0.00
2019-04-07T23:07:57.644Z,0.00
2019-04-07T23:08:57.656Z,0.00
2019-04-07T23:09:57.989Z,0.00
2019-04-07T23:10:58.050Z,0.00
2019-04-07T23:11:57.608Z,0.00
2019-04-07T23:12:57.589Z,0.00
2019-04-07T23:13:57.608Z,0.00
2019-04-07T23:14:58.221Z,0.00
2019-04-07T23:16:08.748Z,0.00
2019-04-07T23:16:58.546Z,0.00
2019-04-07T23:17:57.693Z,0.00
2019-04-07T23:18:58.347Z,0.00
2019-04-07T23:19:57.510Z,0.00
2019-04-07T23:20:57.550Z,0.00
2019-04-07T23:21:57.600Z,0.00
2019-04-07T23:22:58.197Z,0.00
2019-04-07T23:23:57.771Z,0.00
2019-04-07T23:24:57.481Z,0.00
2019-04-07T23:25:57.760Z,0.00
2019-04-07T23:26:57.432Z,0.00
2019-04-07T23:27:58.419Z,0.00
2019-04-07T23:28:58.370Z,0.00
2019-04-07T23:29:57.408Z,0.00
2019-04-07T23:30:57.406Z,0.00
2019-04-07T23:31:57.668Z,0.00
2019-04-07T23:32:57.790Z,0.00
2019-04-07T23:33:57.393Z,0.00
2019-04-07T23:34:57.619Z,0.00
2019-04-07T23:35:57.517Z,0.00
2019-04-07T23:36:57.558Z,0.00
2019-04-07T23:37:57.472Z,0.00
2019-04-07T23:38:58.046Z,0.00
2019-04-07T23:39:58.087Z,0.00
2019-04-07T23:40:57.733Z,0.00
2019-04-07T23:41:57.514Z,0.00
2019-04-07T23:42:57.283Z,0.00
2019-04-07T23:43:57.266Z,0.00
2019-04-07T23:44:57.236Z,0.00
2019-04-07T23:45:58.036Z,0.00
2019-04-07T23:46:57.239Z,0.00
2019-04-07T23:47:57.238Z,0.00
2019-04-07T23:48:58.091Z,0.00
2019-04-07T23:49:57.188Z,0.00
2019-04-07T23:50:58.180Z,0.00
2019-04-07T23:51:57.192Z,0.00
2019-04-07T23:52:57.993Z,0.00
2019-04-07T23:53:58.010Z,0.00
2019-04-07T23:54:57.130Z,0.00
2019-04-07T23:55:57.141Z,0.00
2019-04-07T23:56:57.112Z,0.00
2019-04-07T23:57:57.102Z,0.00
2019-04-07T23:58:57.131Z,0.00
2019-04-07T23:59:57.077Z,0.00
